Time;durP1;ratioP1;P1;durP2;ratioP2;P2;SDS_P1;SDS_P2;PMS_P1;PMS_P2;Temp;Humidity;BMP_temperature;BMP_pressure;BME280_temperature;BME280_humidity;BME280_pressure;Samples;Min_cycle;Max_cycle;Signal;HPM_P1;HPM_P2
2022/06/02 00:02:21;;;;;;;;;1.67;1.67;;;;;16.19;100.00;101298.63;5073658;27;45443;-77
2022/06/02 00:05:24;;;;;;;;;1.67;1.67;;;;;16.17;100.00;101302.72;5073499;27;45809;-77
2022/06/02 00:08:37;;;;;;;;;2.00;1.67;;;;;16.13;100.00;101305.09;5070887;27;45356;-78
2022/06/02 00:11:29;;;;;;;;;1.67;1.67;;;;;16.12;100.00;101313.63;4986063;28;48529;-76
2022/06/02 00:14:23;;;;;;;;;2.00;2.00;;;;;16.05;100.00;101303.47;5071743;27;45567;-76
2022/06/02 00:17:19;;;;;;;;;1.33;1.33;;;;;16.08;100.00;101317.91;5072366;27;45902;-76
2022/06/02 00:20:19;;;;;;;;;2.00;2.00;;;;;16.01;100.00;101305.00;5072406;27;45522;-76
2022/06/02 00:22:56;;;;;;;;;2.33;2.33;;;;;15.99;100.00;101306.34;5061677;28;45725;-76
2022/06/02 00:25:27;;;;;;;;;2.67;1.33;;;;;15.96;100.00;101318.72;5070056;27;45420;-77
2022/06/02 00:28:11;;;;;;;;;5.33;2.33;;;;;15.89;100.00;101304.09;5063244;27;45859;-75
2022/06/02 00:31:06;;;;;;;;;4.33;2.00;;;;;15.87;100.00;101328.41;5070445;27;45882;-77
2022/06/02 00:33:58;;;;;;;;;2.33;2.00;;;;;15.82;100.00;101336.53;5070748;27;46396;-74
2022/06/02 00:36:43;;;;;;;;;3.33;3.33;;;;;15.76;100.00;101331.88;5072638;27;45850;-79
2022/06/02 00:39:09;;;;;;;;;1.67;1.67;;;;;15.70;100.00;101328.97;5073128;27;45989;-76
2022/06/02 00:42:04;;;;;;;;;4.33;3.00;;;;;15.65;100.00;101322.44;5072342;27;45705;-75
2022/06/02 00:44:35;;;;;;;;;3.00;3.00;;;;;15.58;100.00;101321.66;5072309;27;45701;-76
2022/06/02 00:47:28;;;;;;;;;3.00;3.00;;;;;15.53;100.00;101333.38;5072412;28;45787;-77
2022/06/02 00:50:03;;;;;;;;;3.00;3.00;;;;;15.50;100.00;101333.84;5072225;27;45511;-77
2022/06/02 00:52:44;;;;;;;;;3.00;3.00;;;;;15.43;100.00;101338.59;5068109;27;46146;-76
2022/06/02 00:58:20;;;;;;;;;4.00;4.00;;;;;15.31;100.00;101322.75;5056777;27;45551;-76
2022/06/02 01:00:50;;;;;;;;;3.33;3.33;;;;;15.28;100.00;101333.41;5068125;27;45384;-77
2022/06/02 01:03:22;;;;;;;;;4.33;4.33;;;;;15.17;100.00;101327.53;5072073;27;45710;-76
2022/06/02 01:06:10;;;;;;;;;3.33;3.33;;;;;15.14;100.00;101325.22;5057765;27;45707;-76
2022/06/02 01:08:54;;;;;;;;;3.33;3.00;;;;;15.12;100.00;101332.03;5059400;27;45800;-76
2022/06/02 01:11:46;;;;;;;;;8.00;4.00;;;;;15.01;100.00;101325.31;5070524;27;45927;-77
2022/06/02 01:14:30;;;;;;;;;4.00;4.00;;;;;15.03;100.00;101337.00;5069880;28;46151;-76
2022/06/02 01:17:04;;;;;;;;;2.00;2.00;;;;;14.90;100.00;101313.09;5057679;27;47159;-78
2022/06/02 01:20:02;;;;;;;;;2.33;2.00;;;;;14.95;100.00;101335.34;5071841;27;45355;-76
2022/06/02 01:23:09;;;;;;;;;4.00;4.00;;;;;14.90;100.00;101323.31;5074460;27;45434;-79
2022/06/02 01:26:06;;;;;;;;;4.00;4.00;;;;;14.85;100.00;101325.88;5075680;27;45531;-76
2022/06/02 01:29:00;;;;;;;;;2.33;2.33;;;;;14.83;100.00;101320.56;5062757;27;45804;-79
2022/06/02 01:32:06;;;;;;;;;4.33;4.33;;;;;14.82;100.00;101321.66;5065659;28;45595;-76
2022/06/02 01:34:58;;;;;;;;;4.00;4.00;;;;;14.76;100.00;101331.69;5072185;27;45686;-77
2022/06/02 01:37:43;;;;;;;;;6.00;5.00;;;;;14.71;100.00;101323.19;5065468;27;45500;-77
2022/06/02 01:40:25;;;;;;;;;4.00;4.00;;;;;14.65;100.00;101329.59;5084342;27;46291;-77
2022/06/02 01:42:56;;;;;;;;;4.00;3.33;;;;;14.64;100.00;101333.44;5108258;27;45757;-78
2022/06/02 01:45:50;;;;;;;;;2.67;2.67;;;;;14.57;100.00;101330.69;5107814;27;45790;-77
2022/06/02 01:48:40;;;;;;;;;2.67;2.67;;;;;14.52;100.00;101344.31;5092601;27;45628;-77
2022/06/02 01:51:30;;;;;;;;;3.67;3.67;;;;;14.46;100.00;101347.94;5064157;27;46989;-78
2022/06/02 01:53:55;;;;;;;;;3.33;2.33;;;;;14.40;100.00;101351.56;5091272;27;45436;-78
2022/06/02 01:56:49;;;;;;;;;6.00;4.00;;;;;14.31;100.00;101359.25;5078904;27;45480;-76
2022/06/02 01:59:29;;;;;;;;;6.00;5.33;;;;;14.18;100.00;101335.34;5091645;27;45510;-76
2022/06/02 02:02:09;;;;;;;;;6.67;5.00;;;;;14.22;100.00;101349.53;5093069;27;45387;-76
2022/06/02 02:05:27;;;;;;;;;6.00;4.33;;;;;14.20;100.00;101358.03;5103874;27;45782;-79
2022/06/02 02:08:19;;;;;;;;;4.00;4.00;;;;;14.15;100.00;101352.34;5080081;27;45784;-78
2022/06/02 02:11:12;;;;;;;;;5.67;5.00;;;;;14.10;100.00;101352.13;5092636;27;45416;-78
2022/06/02 02:14:05;;;;;;;;;4.00;4.00;;;;;14.05;100.00;101352.78;5069884;27;45691;-77
2022/06/02 02:16:48;;;;;;;;;3.67;2.67;;;;;14.02;100.00;101338.59;5077446;27;45439;-77
2022/06/02 02:19:43;;;;;;;;;9.00;6.33;;;;;13.98;100.00;101343.66;5092491;27;45352;-77
2022/06/02 02:22:15;;;;;;;;;5.00;5.00;;;;;13.97;100.00;101346.66;5065131;28;45377;-77
2022/06/02 02:25:10;;;;;;;;;4.00;4.00;;;;;13.92;100.00;101342.66;5087927;27;45780;-78
2022/06/02 02:28:04;;;;;;;;;6.00;6.00;;;;;13.91;100.00;101349.22;5089931;27;45693;-76
2022/06/02 02:30:45;;;;;;;;;8.33;5.67;;;;;13.77;100.00;101331.88;5077500;27;45807;-76
2022/06/02 02:33:32;;;;;;;;;5.00;5.00;;;;;13.79;100.00;101345.44;5087153;27;45771;-76
2022/06/02 02:36:24;;;;;;;;;7.00;5.33;;;;;13.82;100.00;101352.41;5081309;27;45406;-75
2022/06/02 02:39:02;;;;;;;;;7.00;6.00;;;;;13.81;100.00;101342.47;5084096;27;45655;-76
2022/06/02 02:41:33;;;;;;;;;5.67;5.00;;;;;13.66;100.00;101320.66;5087597;27;45599;-77
2022/06/02 02:44:43;;;;;;;;;9.00;6.00;;;;;13.78;100.00;101343.75;5077945;27;45644;-77
2022/06/02 02:47:14;;;;;;;;;5.33;5.33;;;;;13.72;100.00;101344.59;5088167;27;46577;-77
2022/06/02 02:50:18;;;;;;;;;5.67;4.00;;;;;13.74;100.00;101350.72;5086500;27;45416;-77
2022/06/02 02:52:57;;;;;;;;;5.00;5.00;;;;;13.64;100.00;101336.53;5062045;28;45608;-77
2022/06/02 02:55:36;;;;;;;;;4.00;4.00;;;;;13.72;100.00;101358.38;5089418;27;45763;-77
2022/06/02 02:58:41;;;;;;;;;6.67;6.67;;;;;13.70;100.00;101357.75;5083900;27;46764;-75
2022/06/02 03:01:14;;;;;;;;;5.33;5.00;;;;;13.59;100.00;101346.31;5095732;27;45539;-76
2022/06/02 03:04:06;;;;;;;;;5.33;5.33;;;;;13.66;100.00;101356.50;5081267;27;45785;-75
2022/06/02 03:06:37;;;;;;;;;7.00;5.67;;;;;13.64;100.00;101358.59;5111308;27;46045;-76
2022/06/02 03:09:21;;;;;;;;;6.33;6.00;;;;;13.63;100.00;101351.41;5095483;27;46260;-76
2022/06/02 03:11:50;;;;;;;;;6.33;5.33;;;;;13.61;100.00;101340.59;5111732;27;45488;-75
2022/06/02 03:14:26;;;;;;;;;4.00;4.00;;;;;13.58;100.00;101338.28;5093394;27;45429;-76
2022/06/02 03:17:02;;;;;;;;;6.00;6.00;;;;;13.55;100.00;101345.06;5086974;27;45783;-77
2022/06/02 03:19:45;;;;;;;;;6.00;5.00;;;;;13.55;100.00;101341.47;5103642;27;46634;-77
2022/06/02 03:22:33;;;;;;;;;6.33;6.33;;;;;13.53;100.00;101336.16;5077158;27;45602;-78
2022/06/02 03:25:24;;;;;;;;;6.00;6.00;;;;;13.53;100.00;101335.28;5070049;27;45498;-78
2022/06/02 03:28:07;;;;;;;;;8.00;6.00;;;;;13.51;100.00;101332.75;5096310;27;45413;-79
2022/06/02 03:31:13;;;;;;;;;6.00;6.00;;;;;13.50;100.00;101347.63;5085042;27;48047;-78
2022/06/02 03:33:41;;;;;;;;;8.00;6.67;;;;;13.50;100.00;101350.38;5073989;27;45499;-80
2022/06/02 03:36:18;;;;;;;;;9.00;7.00;;;;;13.49;100.00;101356.06;5075183;28;45366;-78
2022/06/02 03:39:09;;;;;;;;;7.00;6.67;;;;;13.42;100.00;101345.06;5072094;28;45722;-79
2022/06/02 03:41:46;;;;;;;;;6.00;5.33;;;;;13.49;100.00;101356.06;5071809;27;47426;-80
2022/06/02 03:44:15;;;;;;;;;9.00;7.67;;;;;13.48;100.00;101360.75;5077593;27;45476;-79
2022/06/02 03:47:31;;;;;;;;;7.00;6.00;;;;;13.42;100.00;101358.84;5069145;27;45857;-78
2022/06/02 03:50:31;;;;;;;;;6.00;6.00;;;;;13.51;100.00;101376.00;4993615;28;45930;-78
2022/06/02 03:53:26;;;;;;;;;8.00;6.00;;;;;13.40;100.00;101347.19;5010706;28;45334;-78
2022/06/02 03:56:27;;;;;;;;;7.00;7.00;;;;;13.58;100.00;101369.44;5062770;28;45801;-77
2022/06/02 03:59:06;;;;;;;;;5.67;5.00;;;;;13.70;100.00;101364.13;5049974;28;45903;-78
2022/06/02 04:01:41;;;;;;;;;7.00;5.00;;;;;13.84;100.00;101359.41;5064487;28;45349;-78
2022/06/02 04:04:33;;;;;;;;;5.33;4.33;;;;;14.12;100.00;101350.84;5073715;27;46319;-79
2022/06/02 04:07:28;;;;;;;;;9.33;8.33;;;;;14.43;100.00;101340.09;5067936;27;45374;-80
2022/06/02 04:10:24;;;;;;;;;9.00;8.00;;;;;14.80;100.00;101340.34;5075298;27;45630;-78
2022/06/02 04:16:04;;;;;;;;;6.00;6.00;;;;;15.64;100.00;101365.84;5073755;27;45444;-78
2022/06/02 04:18:42;;;;;;;;;11.00;9.00;;;;;16.00;100.00;101361.44;5063071;28;45461;-78
2022/06/02 04:21:25;;;;;;;;;7.00;7.00;;;;;16.39;100.00;101353.72;5063459;27;45726;-80
2022/06/02 04:24:15;;;;;;;;;5.33;5.33;;;;;16.85;100.00;101353.31;5074163;27;45816;-78
2022/06/02 04:27:04;;;;;;;;;6.00;5.33;;;;;17.31;100.00;101357.31;5075845;27;47456;-79
2022/06/02 04:30:07;;;;;;;;;6.67;5.67;;;;;17.82;100.00;101350.19;5074613;27;45454;-78
2022/06/02 04:33:04;;;;;;;;;6.00;6.00;;;;;18.31;100.00;101351.84;5084375;27;45556;-79
2022/06/02 04:35:43;;;;;;;;;9.33;6.67;;;;;18.82;100.00;101355.63;5080089;27;45744;-79
2022/06/02 04:38:24;;;;;;;;;6.33;5.00;;;;;19.37;99.37;101364.38;5065301;27;48046;-78
2022/06/02 04:41:18;;;;;;;;;7.67;6.67;;;;;20.10;94.86;101364.38;5067438;28;45767;-80
2022/06/02 04:44:09;;;;;;;;;9.00;7.33;;;;;20.99;90.04;101366.03;5071696;27;45495;-79
2022/06/02 04:47:02;;;;;;;;;9.67;6.00;;;;;21.66;84.87;101341.50;5073944;27;45572;-78
2022/06/02 04:49:47;;;;;;;;;8.33;6.00;;;;;22.51;81.27;101376.84;5077828;27;47639;-79
2022/06/02 04:52:16;;;;;;;;;7.33;6.33;;;;;22.61;78.59;101372.44;5073825;27;45523;-78
2022/06/02 04:54:58;;;;;;;;;5.33;4.67;;;;;22.34;79.42;101376.25;5069123;27;45420;-80
2022/06/02 04:57:57;;;;;;;;;5.00;5.00;;;;;22.70;77.23;101374.41;5071429;28;45551;-81
2022/06/02 05:00:51;;;;;;;;;5.00;5.00;;;;;22.85;76.44;101368.00;5068605;28;46263;-79
2022/06/02 05:03:31;;;;;;;;;5.00;5.00;;;;;22.98;75.11;101363.00;5054416;27;45806;-79
2022/06/02 05:06:17;;;;;;;;;6.00;4.67;;;;;23.00;74.36;101380.34;5072638;27;45523;-78
2022/06/02 05:08:58;;;;;;;;;7.00;5.67;;;;;22.99;74.00;101365.50;5073341;27;45638;-78
2022/06/02 05:12:01;;;;;;;;;5.67;4.00;;;;;22.84;73.84;101360.72;5064449;28;46216;-76
2022/06/02 05:14:29;;;;;;;;;5.67;4.00;;;;;22.21;75.18;101357.97;5071116;27;45598;-76
2022/06/02 05:17:01;;;;;;;;;4.00;4.00;;;;;21.61;77.70;101371.31;5072336;27;45697;-78
2022/06/02 05:19:34;;;;;;;;;4.67;3.67;;;;;21.13;80.25;101374.78;5068113;27;45870;-77
2022/06/02 05:22:26;;;;;;;;;7.00;6.67;;;;;20.74;81.97;101368.53;5070768;27;46571;-78
2022/06/02 05:25:29;;;;;;;;;7.00;4.33;;;;;20.48;84.09;101382.16;5064868;28;45790;-78
2022/06/02 05:28:25;;;;;;;;;7.00;5.33;;;;;20.66;84.24;101374.56;5069485;27;45709;-79
2022/06/02 05:31:27;;;;;;;;;7.00;5.00;;;;;20.99;82.91;101363.22;5070225;27;46060;-80
2022/06/02 05:34:17;;;;;;;;;5.33;5.33;;;;;20.87;82.07;101373.72;5090968;27;47474;-84
2022/06/02 05:36:48;;;;;;;;;8.00;6.00;;;;;20.78;82.97;101364.13;5076069;28;45677;-85
2022/06/02 05:39:35;;;;;;;;;8.67;7.00;;;;;20.48;84.22;101379.38;5085863;27;45366;-83
2022/06/02 05:42:49;;;;;;;;;10.00;8.33;;;;;20.00;86.96;101373.47;5083936;27;45982;-79
2022/06/02 05:45:53;;;;;;;;;5.67;5.67;;;;;19.91;88.84;101367.50;5062422;28;46304;-83
2022/06/02 05:48:40;;;;;;;;;7.67;6.67;;;;;19.98;88.15;101370.06;5075249;28;45428;-90
2022/06/02 05:51:30;;;;;;;;;9.00;8.00;;;;;19.80;88.39;101376.78;5081331;27;45358;-86
2022/06/02 05:53:58;;;;;;;;;5.67;5.67;;;;;19.27;91.47;101383.69;5082231;28;45862;-85
2022/06/02 05:56:39;;;;;;;;;5.00;5.00;;;;;19.04;94.03;101389.13;5071649;28;45415;-85
2022/06/02 06:01:53;;;;;;;;;8.00;8.00;;;;;19.65;92.62;101382.09;5101535;22;45740;-79
2022/06/02 06:04:30;;;;;;;;;7.00;7.00;;;;;20.08;89.57;101378.56;4993822;28;45597;-79
2022/06/02 06:07:01;;;;;;;;;8.00;7.33;;;;;20.06;88.95;101382.69;4994614;28;46927;-82
2022/06/02 06:09:33;;;;;;;;;6.67;6.00;;;;;20.09;89.52;101379.44;4995992;28;45563;-82
2022/06/02 06:12:02;;;;;;;;;6.67;6.67;;;;;20.16;89.31;101380.06;5011356;28;45772;-81
2022/06/02 06:14:43;;;;;;;;;8.00;7.00;;;;;21.03;85.01;101379.44;4995922;28;45510;-83
2022/06/02 06:17:27;;;;;;;;;8.67;7.33;;;;;21.96;81.55;101383.81;4995891;28;46209;-80
2022/06/02 06:20:02;;;;;;;;;6.33;6.33;;;;;22.45;78.44;101389.13;4995084;28;45702;-79
2022/06/02 06:22:40;;;;;;;;;8.00;6.67;;;;;22.52;76.47;101388.91;4981212;28;45483;-81
2022/06/02 06:25:14;;;;;;;;;7.00;7.00;;;;;22.79;77.09;101369.13;4999533;28;45840;-80
2022/06/02 06:27:59;;;;;;;;;9.67;7.67;;;;;23.48;74.00;101382.94;4994073;28;46726;-80
2022/06/02 06:30:56;;;;;;;;;8.67;7.00;;;;;23.21;75.18;101378.44;4993933;28;45752;-79
2022/06/02 06:33:52;;;;;;;;;11.67;8.33;;;;;23.39;73.49;101375.09;4940246;28;45687;-79
2022/06/02 06:36:58;;;;;;;;;10.67;9.00;;;;;24.06;72.29;101369.41;4992408;28;45617;-81
2022/06/02 06:39:49;;;;;;;;;8.33;8.00;;;;;25.40;66.90;101365.88;4989937;28;46850;-82
2022/06/02 06:42:30;;;;;;;;;11.33;7.33;;;;;26.20;60.84;101372.97;4972620;28;45776;-81
2022/06/02 06:45:48;;;;;;;;;8.33;8.33;;;;;27.18;57.07;101376.44;4994601;28;45835;-80
2022/06/02 06:48:23;;;;;;;;;7.00;7.00;;;;;27.94;52.55;101373.44;4984816;28;45718;-80
2022/06/02 06:51:07;;;;;;;;;12.67;7.67;;;;;28.31;49.94;101368.75;4990568;28;47271;-81
2022/06/02 06:53:53;;;;;;;;;7.67;7.67;;;;;28.45;48.44;101368.75;4974276;28;45440;-78
2022/06/02 06:56:24;;;;;;;;;11.67;7.00;;;;;28.86;46.26;101359.38;4991661;28;45435;-77
2022/06/02 06:59:15;;;;;;;;;8.33;8.33;;;;;28.81;45.41;101363.16;4976272;28;47194;-77
2022/06/02 07:01:55;;;;;;;;;11.67;9.33;;;;;29.52;43.06;101356.94;4979978;28;47069;-77
2022/06/02 07:04:23;;;;;;;;;7.33;7.00;;;;;30.11;40.48;101370.88;4992119;28;45583;-77
2022/06/02 07:07:15;;;;;;;;;9.33;6.67;;;;;30.14;40.00;101351.59;4993532;28;45993;-80
2022/06/02 07:10:18;;;;;;;;;7.00;5.67;;;;;30.31;39.17;101362.94;4989371;28;46164;-79
2022/06/02 07:13:11;;;;;;;;;9.33;7.00;;;;;30.95;37.72;101375.75;4989865;28;46896;-79
2022/06/02 07:15:37;;;;;;;;;7.33;7.33;;;;;31.27;36.66;101379.25;4992337;28;45565;-78
2022/06/02 07:18:45;;;;;;;;;5.33;5.33;;;;;31.85;35.53;101374.16;4993415;28;45738;-76
2022/06/02 07:21:32;;;;;;;;;5.33;5.33;;;;;32.88;33.79;101375.97;4990303;28;45747;-81
2022/06/02 07:24:25;;;;;;;;;6.00;6.00;;;;;33.26;31.04;101377.84;4976737;28;47033;-77
2022/06/02 07:27:09;;;;;;;;;6.00;6.00;;;;;33.58;30.43;101372.50;4962101;28;45691;-77
2022/06/02 07:29:39;;;;;;;;;5.00;5.00;;;;;34.44;29.99;101366.13;4992846;28;45995;-76
2022/06/02 07:32:27;;;;;;;;;5.00;5.00;;;;;35.16;28.11;101389.13;4985903;28;45389;-78
2022/06/02 07:35:16;;;;;;;;;6.00;5.00;;;;;35.52;27.06;101375.09;4972219;28;47217;-78
2022/06/02 07:38:24;;;;;;;;;7.33;5.33;;;;;36.01;26.29;101382.53;4991140;28;45728;-81
2022/06/02 07:41:19;;;;;;;;;7.00;5.00;;;;;36.81;26.05;101371.00;4976076;28;45910;-80
2022/06/02 07:44:11;;;;;;;;;6.67;6.67;;;;;36.92;24.55;101372.91;4940178;28;46789;-81
2022/06/02 07:47:06;;;;;;;;;9.00;6.67;;;;;36.94;24.90;101355.38;4949632;28;46645;-81
2022/06/02 07:49:56;;;;;;;;;6.67;4.00;;;;;37.72;23.70;101365.94;4967750;28;45890;-78
2022/06/02 07:52:39;;;;;;;;;6.67;6.67;;;;;37.72;23.22;101368.81;4988368;28;45217;-81
2022/06/02 07:55:15;;;;;;;;;9.33;8.00;;;;;37.38;22.75;101380.84;4991112;28;46146;-80
2022/06/02 07:58:04;;;;;;;;;8.33;7.33;;;;;36.54;23.64;101367.91;4993422;28;45524;-83
2022/06/02 08:00:40;;;;;;;;;7.67;6.00;;;;;36.32;24.13;101355.16;4994314;28;45480;-79
2022/06/02 08:03:15;;;;;;;;;5.00;5.00;;;;;36.29;23.50;101361.59;4995600;28;45983;-82
2022/06/02 08:05:51;;;;;;;;;5.33;5.33;;;;;35.16;24.68;101374.03;4993899;28;45456;-82
2022/06/02 08:08:29;;;;;;;;;5.33;5.33;;;;;34.45;25.93;101357.22;4995136;28;46016;-79
2022/06/02 08:11:37;;;;;;;;;3.33;3.33;;;;;35.58;24.88;101344.25;5006001;28;45449;-79
2022/06/02 08:14:05;;;;;;;;;8.33;5.00;;;;;35.07;24.19;101347.72;4985916;28;45493;-81
2022/06/02 08:16:51;;;;;;;;;5.33;4.33;;;;;34.49;25.19;101340.22;4997358;28;46996;-78
2022/06/02 08:19:44;;;;;;;;;4.67;4.00;;;;;34.50;25.70;101347.59;4993395;28;46325;-78
2022/06/02 08:22:23;;;;;;;;;3.00;1.67;;;;;34.01;24.98;101319.94;4984287;28;45532;-80
2022/06/02 08:25:08;;;;;;;;;8.00;5.00;;;;;32.88;27.18;101314.31;4994195;28;45344;-79
2022/06/02 08:27:45;;;;;;;;;5.00;4.00;;;;;32.82;27.22;101335.59;4979460;28;47667;-80
2022/06/02 08:30:20;;;;;;;;;4.67;3.00;;;;;32.36;27.18;101297.66;4991000;28;47137;-81
2022/06/02 08:32:58;;;;;;;;;6.67;6.00;;;;;32.15;28.68;101338.16;4982767;28;45861;-81
2022/06/02 08:35:37;;;;;;;;;7.67;6.67;;;;;31.98;28.61;101329.72;4991985;28;45773;-81
2022/06/02 08:38:35;;;;;;;;;5.00;4.00;;;;;30.89;29.52;101312.75;4990470;28;45800;-79
2022/06/02 08:41:28;;;;;;;;;4.67;4.00;;;;;30.45;30.77;101324.06;4991001;28;48258;-80
2022/06/02 08:44:18;;;;;;;;;3.67;3.67;;;;;30.15;31.80;101330.63;4990482;28;45332;-80
2022/06/02 08:47:05;;;;;;;;;4.00;4.00;;;;;29.78;31.71;101316.66;4991040;28;45409;-80
2022/06/02 08:49:48;;;;;;;;;4.00;4.00;;;;;28.91;33.13;101322.56;4989760;28;45778;-80
2022/06/02 08:52:55;;;;;;;;;4.00;4.00;;;;;28.44;35.19;101319.09;4972874;28;48025;-79
2022/06/02 08:55:42;;;;;;;;;4.00;4.00;;;;;28.29;35.11;101325.91;4985277;28;45865;-80
2022/06/02 08:58:59;;;;;;;;;5.00;5.00;;;;;28.91;34.70;101321.72;4989325;28;45702;-79
2022/06/02 09:01:31;;;;;;;;;4.00;4.00;;;;;30.16;31.73;101320.97;4977345;28;45541;-80
2022/06/02 09:04:24;;;;;;;;;3.67;3.67;;;;;30.56;30.39;101335.06;4989445;28;45679;-80
2022/06/02 09:07:23;;;;;;;;;3.00;3.00;;;;;31.59;27.77;101326.03;4990674;28;45534;-79
2022/06/02 09:10:21;;;;;;;;;3.00;3.00;;;;;32.38;27.11;101312.31;4960884;28;45687;-76
2022/06/02 09:12:59;;;;;;;;;5.00;3.00;;;;;32.97;26.70;101313.41;4991299;28;45765;-74
2022/06/02 09:15:50;;;;;;;;;3.33;3.33;;;;;33.22;26.13;101309.50;5000325;28;46634;-77
2022/06/02 09:18:17;;;;;;;;;5.00;3.67;;;;;33.64;25.49;101310.53;5007035;28;45516;-76
2022/06/02 09:20:50;;;;;;;;;4.67;4.00;;;;;33.80;25.08;101303.00;4987190;28;46165;-77
2022/06/02 09:23:15;;;;;;;;;3.67;3.00;;;;;34.38;23.50;101311.41;4972272;28;45999;-76
2022/06/02 09:25:54;;;;;;;;;3.00;3.00;;;;;34.80;22.88;101304.56;4989312;28;45698;-78
2022/06/02 09:28:51;;;;;;;;;3.00;3.00;;;;;35.67;21.94;101302.09;4989485;28;45965;-77
2022/06/02 09:31:22;;;;;;;;;5.33;3.67;;;;;36.43;20.75;101301.16;4983485;28;45603;-77
2022/06/02 09:34:09;;;;;;;;;2.00;2.00;;;;;36.40;20.77;101320.69;4989521;28;45392;-77
2022/06/02 09:36:57;;;;;;;;;3.00;3.00;;;;;36.60;20.57;101299.88;4985798;28;47105;-77
2022/06/02 09:39:54;;;;;;;;;2.00;2.00;;;;;36.87;21.15;101301.72;4995316;28;45440;-75
2022/06/02 09:42:39;;;;;;;;;4.00;2.67;;;;;37.04;20.74;101303.28;4990990;28;45718;-76
2022/06/02 09:45:27;;;;;;;;;1.67;1.67;;;;;37.14;20.32;101303.88;4989388;28;45895;-77
2022/06/02 09:48:11;;;;;;;;;2.67;2.00;;;;;37.26;20.16;101300.88;4971718;28;46022;-77
2022/06/02 09:51:04;;;;;;;;;2.67;2.67;;;;;38.03;19.65;101310.44;4986792;28;45716;-76
2022/06/02 09:53:36;;;;;;;;;3.00;3.00;;;;;38.95;18.47;101329.38;4983921;28;45572;-79
2022/06/02 09:56:36;;;;;;;;;4.00;2.00;;;;;39.09;18.46;101299.22;4981786;28;46794;-78
2022/06/02 09:59:12;;;;;;;;;2.00;2.00;;;;;39.47;17.54;101305.81;4987390;28;45566;-75
2022/06/02 10:01:56;;;;;;;;;2.00;2.00;;;;;39.97;17.37;101306.25;4987355;28;45562;-80
2022/06/02 10:04:46;;;;;;;;;5.00;3.00;;;;;40.50;17.07;101325.16;4987718;28;45481;-80
2022/06/02 10:07:30;;;;;;;;;1.00;1.00;;;;;40.24;16.53;101315.53;4967812;28;47066;-77
2022/06/02 10:10:14;;;;;;;;;1.67;1.67;;;;;39.71;16.54;101307.28;4982726;28;46240;-79
2022/06/02 10:12:58;;;;;;;;;2.00;2.00;;;;;39.44;17.56;101303.72;4985575;28;45892;-76
2022/06/02 10:15:46;;;;;;;;;2.33;2.33;;;;;39.57;17.05;101305.13;4965867;28;45484;-79
2022/06/02 10:18:58;;;;;;;;;3.00;2.00;;;;;40.34;17.11;101293.00;4985998;28;45832;-80
2022/06/02 10:21:46;;;;;;;;;3.33;2.00;;;;;39.95;17.28;101296.41;4966081;28;46877;-76
2022/06/02 10:25:00;;;;;;;;;3.00;3.00;;;;;38.74;17.94;101281.19;4968099;28;45925;-78
2022/06/02 10:27:37;;;;;;;;;2.00;2.00;;;;;37.55;18.61;101279.34;4940474;28;45880;-76
2022/06/02 10:30:18;;;;;;;;;2.67;2.67;;;;;37.03;19.03;101295.91;4973152;28;45930;-77
2022/06/02 10:33:25;;;;;;;;;2.00;2.00;;;;;37.31;18.89;101268.25;4963770;28;48515;-76
2022/06/02 10:36:07;;;;;;;;;2.00;2.00;;;;;38.35;18.03;101284.34;4986125;28;45519;-81
2022/06/02 10:38:53;;;;;;;;;2.00;2.00;;;;;38.46;17.68;101248.06;4989392;28;45596;-77
2022/06/02 10:41:40;;;;;;;;;2.00;2.00;;;;;38.91;16.81;101278.94;4981680;28;45973;-77
2022/06/02 10:44:06;;;;;;;;;2.00;2.00;;;;;39.22;16.14;101269.06;4967679;28;45884;-77
2022/06/02 10:47:08;;;;;;;;;3.67;2.33;;;;;39.51;16.61;101272.19;4981387;28;45621;-80
2022/06/02 10:49:39;;;;;;;;;0.67;0.67;;;;;39.93;16.37;101278.72;4988661;28;45865;-79
2022/06/02 10:52:35;;;;;;;;;4.00;3.00;;;;;39.94;16.10;101269.69;4988492;28;45477;-76
2022/06/02 10:55:31;;;;;;;;;5.33;2.67;;;;;39.74;16.24;101274.91;4990905;28;45833;-77
2022/06/02 10:58:21;;;;;;;;;1.00;1.00;;;;;39.46;16.59;101252.47;4992714;28;45951;-75
2022/06/02 11:00:53;;;;;;;;;2.67;1.67;;;;;39.53;16.67;101241.88;4997916;28;45812;-76
2022/06/02 11:04:25;;;;;;;;;1.00;1.00;;;;;39.46;16.85;101263.97;5006585;28;46282;-76
2022/06/02 11:07:38;;;;;;;;;2.00;2.00;;;;;39.23;16.58;101244.06;4882257;28;48442;-77
2022/06/02 11:10:21;;;;;;;;;2.00;2.00;;;;;38.64;16.59;101225.38;4988523;28;45833;-76
2022/06/02 11:13:11;;;;;;;;;3.00;3.00;;;;;37.79;17.85;101245.84;4989014;28;45530;-76
2022/06/02 11:15:48;;;;;;;;;3.33;2.00;;;;;37.15;18.65;101248.34;4987896;28;45671;-76
2022/06/02 11:18:32;;;;;;;;;2.00;2.00;;;;;36.23;18.56;101264.78;4989968;28;46007;-76
2022/06/02 11:21:36;;;;;;;;;2.67;2.67;;;;;35.06;19.76;101243.41;4985433;28;45810;-78
2022/06/02 11:24:20;;;;;;;;;4.00;4.00;;;;;33.56;21.01;101235.50;4941959;28;45715;-76
2022/06/02 11:27:04;;;;;;;;;2.67;2.67;;;;;32.66;23.00;101243.66;4991255;28;45915;-76
2022/06/02 11:29:41;;;;;;;;;3.67;3.67;;;;;31.70;24.63;101235.75;4986697;28;47309;-77
2022/06/02 11:32:18;;;;;;;;;5.00;3.33;;;;;31.10;25.57;101229.94;4987804;28;45702;-76
2022/06/02 11:35:28;;;;;;;;;6.67;3.67;;;;;30.72;26.57;101233.47;4989027;28;45780;-77
2022/06/02 11:38:22;;;;;;;;;4.67;3.00;;;;;30.37;27.39;101231.44;4964894;28;45945;-75
2022/06/02 11:41:07;;;;;;;;;2.67;2.67;;;;;29.87;28.08;101229.06;4987124;28;45929;-76
2022/06/02 11:44:00;;;;;;;;;3.33;3.33;;;;;29.54;29.63;101215.28;4975466;28;45871;-76
2022/06/02 11:46:54;;;;;;;;;2.00;2.00;;;;;29.07;31.38;101224.16;4982208;28;45573;-79
2022/06/02 11:49:50;;;;;;;;;4.00;4.00;;;;;28.61;32.89;101214.91;4972488;28;46727;-79
2022/06/02 11:52:40;;;;;;;;;4.00;4.00;;;;;28.26;33.18;101217.38;4988201;28;45867;-80
2022/06/02 11:55:36;;;;;;;;;5.67;3.00;;;;;27.95;33.51;101206.78;4986832;28;45680;-77
2022/06/02 11:58:40;;;;;;;;;4.67;4.00;;;;;27.64;35.58;101218.69;4971307;28;45794;-79
2022/06/02 12:01:12;;;;;;;;;3.00;3.00;;;;;27.39;36.58;101225.66;4987292;28;45872;-78
2022/06/02 12:03:56;;;;;;;;;5.00;5.00;;;;;27.20;38.80;101213.63;4989889;28;45840;-76
2022/06/02 12:06:43;;;;;;;;;3.33;3.33;;;;;27.04;38.65;101211.09;4989570;28;45602;-75
2022/06/02 12:09:39;;;;;;;;;4.00;4.00;;;;;26.89;40.64;101194.50;4985026;28;45687;-79
2022/06/02 12:12:28;;;;;;;;;4.00;4.00;;;;;26.75;41.67;101206.53;4989507;28;45722;-79
2022/06/02 12:15:27;;;;;;;;;3.00;3.00;;;;;26.49;40.73;101210.88;4989519;28;47804;-76
2022/06/02 12:18:15;;;;;;;;;4.00;4.00;;;;;26.22;39.78;101187.09;4971566;28;45908;-77
2022/06/02 12:21:05;;;;;;;;;4.00;3.00;;;;;26.27;39.73;101191.81;4965814;28;45923;-79
2022/06/02 12:23:45;;;;;;;;;3.00;3.00;;;;;26.29;40.36;101184.75;4972305;28;46000;-75
2022/06/02 12:26:23;;;;;;;;;4.33;4.33;;;;;26.35;40.09;101182.69;4988717;28;46706;-76
2022/06/02 12:29:17;;;;;;;;;5.33;3.00;;;;;26.28;36.27;101194.31;4987516;28;46738;-75
2022/06/02 12:32:34;;;;;;;;;3.00;3.00;;;;;26.13;36.39;101189.75;4960238;28;46129;-76
2022/06/02 12:35:07;;;;;;;;;4.00;3.00;;;;;26.18;36.40;101175.63;4942694;28;46431;-79
2022/06/02 12:37:52;;;;;;;;;2.00;2.00;;;;;26.43;35.61;101168.75;5005314;28;46395;-79
2022/06/02 12:40:31;;;;;;;;;2.67;2.67;;;;;26.67;34.80;101156.56;4995740;28;45737;-75
2022/06/02 12:43:02;;;;;;;;;2.00;2.00;;;;;26.86;34.56;101170.59;4972946;28;45968;-80
2022/06/02 12:45:43;;;;;;;;;3.00;1.00;;;;;26.91;33.03;101164.88;4989691;28;45843;-79
2022/06/02 12:48:28;;;;;;;;;3.67;2.33;;;;;26.96;32.88;101163.94;4980147;28;45901;-78
2022/06/02 12:51:19;;;;;;;;;3.00;1.33;;;;;27.09;31.49;101157.50;4989090;28;45859;-75
2022/06/02 12:53:50;;;;;;;;;2.00;2.00;;;;;27.17;31.51;101161.59;4984881;28;45479;-77
2022/06/02 12:56:22;;;;;;;;;3.67;3.00;;;;;27.05;30.91;101152.78;4986357;28;46985;-79
2022/06/02 12:59:00;;;;;;;;;2.00;2.00;;;;;26.81;31.53;101148.16;4979102;28;46314;-78
2022/06/02 13:02:04;;;;;;;;;3.00;3.00;;;;;26.67;31.94;101155.75;4986498;28;45606;-76